Date,TemperatureHighF,TemperatureAvgF,TemperatureLowF,DewpointHighF,DewpointAvgF,DewpointLowF,HumidityHigh,HumidityAvg,HumidityLow,PressureMaxIn,PressureMinIn,WindSpeedMaxMPH,WindSpeedAvgMPH,GustSpeedMaxMPH,PrecipitationSumIn
2013-3-1,30.4,26.5,23.6,29.0,22.6,19.0,96,85,77,30.27,30.11,4,2,7,0.04
2013-3-2,32.1,22.1,12.2,19.0,15.1,9.0,89,75,57,30.30,30.24,6,1,9,0.02
2013-3-3,36.6,21.9,6.9,21.0,12.8,5.0,93,71,45,30.24,30.10,6,1,7,0.02
2013-3-4,36.9,30.7,25.6,29.0,25.5,17.0,92,81,70,30.11,29.90,11,4,17,0.01
2013-3-5,32.6,30.1,26.9,30.0,27.7,24.0,96,90,85,30.14,29.88,17,4,22,0.00
2013-3-6,29.4,25.7,21.7,25.0,21.5,19.0,88,84,76,30.39,30.15,10,3,16,0.00
2013-3-7,38.1,28.6,23.2,27.0,23.3,20.0,89,81,64,30.45,30.38,7,1,10,0.09
2013-3-8,44.0,34.1,23.6,36.0,29.0,22.0,92,82,69,30.45,30.25,10,4,15,0.00
2013-3-9,48.9,40.7,35.7,43.0,37.1,32.0,96,87,77,30.23,29.79,16,5,17,0.31
2013-3-10,50.1,46.3,42.3,49.0,45.3,41.0,98,96,92,29.82,29.58,8,2,13,0.97
2013-3-11,43.3,34.0,29.2,43.0,32.4,25.0,98,94,85,29.93,29.61,13,5,20,0.06
2013-3-12,36.5,29.3,24.4,31.0,25.3,20.0,93,85,75,30.17,29.93,15,6,26,0.00
2013-3-13,35.5,27.1,20.9,22.0,19.0,17.0,86,73,50,30.41,30.17,15,4,20,0.00
2013-3-14,47.7,34.4,21.1,33.0,26.9,18.0,90,75,55,30.40,30.09,12,3,21,0.00
2013-3-15,52.3,39.6,28.6,42.0,34.7,27.0,96,83,65,30.09,29.69,5,1,8,0.00
2013-3-16,39.7,35.2,31.1,38.0,31.4,27.0,97,86,71,30.14,29.67,3,1,8,0.00
2013-3-17,36.3,31.7,27.0,29.0,25.7,20.0,87,78,69,30.19,29.92,9,3,14,0.00
2013-3-18,38.5,31.3,24.0,35.0,27.2,15.0,95,85,69,29.96,29.72,18,5,28,0.03
2013-3-19,38.0,27.3,17.7,20.0,15.1,10.0,75,62,41,30.19,29.94,18,6,22,0.00
2013-3-20,27.7,21.8,14.1,20.0,10.5,6.0,78,63,47,30.25,30.15,14,6,24,0.00
2013-3-21,36.6,22.6,9.2,15.0,10.5,5.0,86,62,38,30.17,30.05,5,1,9,0.00
2013-3-22,45.0,31.1,16.7,24.0,18.5,13.0,89,62,38,30.11,30.02,5,1,10,0.00
2013-3-23,48.1,37.5,26.4,29.0,24.0,21.0,92,60,39,30.12,29.98,8,1,10,0.00
2013-3-24,34.2,30.2,28.3,32.0,28.8,27.0,96,94,89,30.02,29.70,4,1,10,0.03
2013-3-25,36.1,31.7,27.4,28.0,26.3,24.0,95,81,68,30.18,29.83,10,3,17,0.07
2013-3-26,37.5,33.2,26.2,28.0,26.1,23.0,86,75,64,30.34,30.19,9,4,15,0.03
2013-3-27,43.7,35.7,27.8,28.0,25.6,23.0,84,68,51,30.40,30.32,6,1,8,0.00
2013-3-28,52.8,38.9,24.0,32.0,27.6,21.0,90,66,44,30.40,30.29,6,2,9,0.00
2013-3-29,59.2,46.1,30.2,36.0,31.7,27.0,89,60,37,30.32,30.21,6,1,9,0.00
2013-3-30,56.6,46.1,35.7,44.0,38.2,31.0,91,75,55,30.22,29.89,14,3,21,0.00
2013-3-31,59.0,48.5,36.7,46.0,38.8,27.0,95,72,41,29.98,29.81,15,6,21,0.00